Weather reports worldwide

Advertisment
Bealach, United Kingdom (3039): temperature & dewpoint: 21.04.2017 04:00:00 - 27.04.2017 04:00:00 (BST)Bealach, United Kingdom (3039): wind speed & gusts: 21.04.2017 04:00:00 - 27.04.2017 04:00:00 (BST)Bealach, United Kingdom (3039): wind direction: 21.04.2017 04:00:00 - 27.04.2017 04:00:00 (BST)
Date & Time tt [°C] td [°C] ff [km/h] ff [kn] fx [km/h] fx [kn] dd
27.04.2017 04:00:00 0,8 0,8 50 27 67 36 NNW
27.04.2017 03:00:00 1,0 1,0 54 29 72 39 NNW
27.04.2017 02:00:00 0,9 0,9 54 29 68 37 NNW
27.04.2017 01:00:00 1,1 1,1 48 26 70 38 NW
27.04.2017 00:00:00 1,3 1,3 59 32 72 39 NNW
26.04.2017 23:00:00 1,6 1,6 59 32 68 37 NNW
26.04.2017 22:00:00 2,0 2,0 52 28 67 36 NNW
26.04.2017 21:00:00 1,5 1,5 34 18 - - NNW
26.04.2017 20:00:00 1,3 1,1 28 15 - - NNW
26.04.2017 19:00:00 1,1 1,1 28 15 - - NW
26.04.2017 18:00:00 1,3 -0,1 28 15 - - NW
26.04.2017 17:00:00 1,0 -1,9 29 16 - - NW
26.04.2017 16:00:00 0,0 -3,4 24 13 - - NW
26.04.2017 15:00:00 -0,2 -3,9 15 8 - - WNW
26.04.2017 14:00:00 -0,3 -1,6 16 9 - - WNW
26.04.2017 13:00:00 -0,9 -3,2 18 10 - - WNW
26.04.2017 12:00:00 -1,3 -3,0 16 9 - - W
26.04.2017 11:00:00 -1,9 -2,8 13 7 - - NW
26.04.2017 10:00:00 -2,0 -2,4 13 7 - - NNW
26.04.2017 09:00:00 -2,0 -2,0 13 7 - - N
26.04.2017 08:00:00 -2,2 -2,2 24 13 - - N
26.04.2017 07:00:00 -2,8 -2,8 29 16 - - NNE
26.04.2017 06:00:00 -2,9 -2,9 24 13 - - N
26.04.2017 05:00:00 -3,2 -3,2 28 15 - - N
26.04.2017 04:00:00 -3,0 -3,0 28 15 - - N
26.04.2017 03:00:00 -3,2 -4,0 21 11 52 28 NNE
26.04.2017 02:00:00 -3,5 -6,2 34 18 57 31 NE
26.04.2017 01:00:00 -3,6 -6,0 39 21 70 38 NNE
26.04.2017 00:00:00 -3,2 -4,9 54 29 74 40 NNE
25.04.2017 23:00:00 -3,1 -4,0 54 29 85 46 NNE
25.04.2017 22:00:00 -2,9 -3,4 44 24 80 43 NNE
25.04.2017 21:00:00 -3,2 -3,9 61 33 93 50 NNE
25.04.2017 20:00:00 -3,1 -3,4 57 31 93 50 NNE
25.04.2017 19:00:00 -2,3 -3,1 65 35 93 50 NNE
25.04.2017 18:00:00 -1,7 -3,8 59 32 85 46 NNE
25.04.2017 17:00:00 -0,3 -3,6 54 29 93 50 NNE
25.04.2017 16:00:00 -2,6 -3,7 70 38 94 51 NNE
25.04.2017 15:00:00 -0,9 -4,1 70 38 100 54 NNE
25.04.2017 14:00:00 -0,7 -3,4 67 36 102 55 NNE
25.04.2017 13:00:00 -1,0 -4,2 76 41 106 57 NNE
25.04.2017 12:00:00 -1,2 -2,7 76 41 104 56 NNE
25.04.2017 11:00:00 -2,2 -2,7 72 39 107 58 NNE
25.04.2017 10:00:00 -1,7 -1,7 68 37 109 59 NNE
25.04.2017 09:00:00 -2,0 -2,1 54 29 106 57 NNE
25.04.2017 08:00:00 -2,4 -2,9 61 33 111 60 NNE
25.04.2017 07:00:00 -2,6 -3,1 54 29 111 60 NNE
25.04.2017 06:00:00 -2,6 -3,1 59 32 113 61 NNE
25.04.2017 05:00:00 -2,5 -2,9 59 32 113 61 NNE
25.04.2017 04:00:00 -2,6 -3,2 67 36 102 55 NNE
25.04.2017 03:00:00 -2,2 -2,2 67 36 109 59 NNE
25.04.2017 02:00:00 -2,6 -2,6 83 45 120 65 NNE
25.04.2017 01:00:00 -1,9 -1,9 37 20 94 51 NNE
25.04.2017 00:00:00 -2,6 -4,0 59 32 94 51 NNE
24.04.2017 23:00:00 -3,2 -4,5 52 28 83 45 NNE
24.04.2017 22:00:00 -3,0 -3,9 39 21 104 56 NNE
24.04.2017 21:00:00 -2,7 -3,4 76 41 104 56 NNE
24.04.2017 20:00:00 -1,9 -1,9 63 34 - - N
24.04.2017 19:00:00 -2,3 -2,3 59 32 93 50 N
24.04.2017 18:00:00 -2,5 -2,5 46 25 63 34 NW
24.04.2017 17:00:00 -3,5 -3,6 52 28 78 42 WNW
24.04.2017 16:00:00 -2,5 -4,1 61 33 81 44 NW
24.04.2017 15:00:00 -3,4 -4,7 57 31 93 50 N
24.04.2017 14:00:00 -3,8 -5,2 59 32 89 48 N
24.04.2017 13:00:00 -4,0 -4,2 52 28 93 50 N
24.04.2017 12:00:00 -3,8 -3,9 59 32 117 63 N
24.04.2017 11:00:00 -3,4 -3,5 89 48 130 70 N
24.04.2017 10:00:00 -2,4 -2,4 96 52 128 69 NNW
24.04.2017 09:00:00 -2,1 -2,1 91 49 111 60 NNW
24.04.2017 08:00:00 -2,5 -2,5 54 29 80 43 WNW
24.04.2017 07:00:00 -2,6 -2,6 52 28 78 42 NW
24.04.2017 06:00:00 -2,6 -3,2 61 33 72 39 NW
24.04.2017 05:00:00 -2,6 -2,8 48 26 76 41 NNW
24.04.2017 04:00:00 -2,1 -2,1 55 30 65 35 NNW
24.04.2017 03:00:00 -1,0 -1,0 48 26 63 34 NNW
24.04.2017 02:00:00 -0,4 -0,4 41 22 57 31 NNW
24.04.2017 01:00:00 -0,1 -0,1 48 26 65 35 NNW
24.04.2017 00:00:00 -0,1 -0,1 55 30 70 38 NNW
23.04.2017 23:00:00 0,5 0,5 61 33 76 41 NNW
23.04.2017 22:00:00 1,9 1,9 63 34 74 40 NW
23.04.2017 21:00:00 2,9 2,9 48 26 68 37 WNW
23.04.2017 20:00:00 3,3 3,3 42 23 67 36 W
23.04.2017 19:00:00 3,1 3,1 59 32 74 40 W
23.04.2017 18:00:00 2,4 2,4 59 32 76 41 WSW
23.04.2017 17:00:00 2,4 2,4 65 35 80 43 W
23.04.2017 16:00:00 2,0 2,0 61 33 72 39 WSW
23.04.2017 15:00:00 1,9 1,5 54 29 68 37 WSW
23.04.2017 14:00:00 2,2 1,3 52 28 61 33 WSW
23.04.2017 13:00:00 1,5 0,2 39 21 52 28 WSW
23.04.2017 12:00:00 1,3 0,4 44 24 57 31 W
23.04.2017 11:00:00 1,1 0,9 41 22 48 26 WSW
23.04.2017 10:00:00 0,7 0,7 39 21 46 25 WSW
23.04.2017 09:00:00 0,8 0,8 31 17 - - W
23.04.2017 08:00:00 0,7 0,7 28 15 - - W
23.04.2017 07:00:00 0,6 0,6 26 14 - - W
23.04.2017 06:00:00 0,2 0,2 26 14 - - W
23.04.2017 05:00:00 0,0 0,0 29 16 - - WNW
23.04.2017 04:00:00 0,0 0,0 29 16 - - WNW
23.04.2017 03:00:00 0,1 0,1 24 13 - - WNW
23.04.2017 02:00:00 0,2 0,2 22 12 - - W
23.04.2017 01:00:00 -0,2 -0,2 22 12 - - NW
23.04.2017 00:00:00 0,0 0,0 21 11 - - WNW
22.04.2017 23:00:00 -0,2 -0,2 22 12 - - NW
22.04.2017 22:00:00 0,0 0,0 21 11 - - NNW
22.04.2017 21:00:00 0,1 0,1 18 10 - - NW
22.04.2017 20:00:00 0,3 0,0 21 11 - - NW
22.04.2017 19:00:00 0,8 -0,9 22 12 - - NNW
22.04.2017 18:00:00 0,8 -1,8 31 17 - - NNW
22.04.2017 17:00:00 1,0 -1,5 31 17 46 25 NNW
22.04.2017 16:00:00 1,7 -0,1 29 16 - - NW
22.04.2017 15:00:00 1,9 -2,0 34 18 - - NW
22.04.2017 14:00:00 1,0 -1,7 28 15 - - NW
22.04.2017 13:00:00 1,6 -2,4 21 11 - - NW
22.04.2017 12:00:00 0,9 -1,2 28 15 - - NW
22.04.2017 11:00:00 -0,3 -3,3 18 10 - - WNW
22.04.2017 10:00:00 -0,6 -1,6 16 9 - - NNW
22.04.2017 09:00:00 -1,1 -2,4 15 8 - - NNW
22.04.2017 08:00:00 -1,9 -2,1 29 16 46 25 NNW
22.04.2017 07:00:00 -0,7 -0,7 26 14 - - NW
22.04.2017 06:00:00 -0,9 -0,9 24 13 - - NNW
22.04.2017 05:00:00 -0,9 -0,9 29 16 - - NNW
22.04.2017 04:00:00 -1,2 -1,5 34 18 - - NNW
22.04.2017 03:00:00 -1,0 -1,0 26 14 - - NNW
22.04.2017 02:00:00 -0,8 -0,8 29 16 - - NNW
22.04.2017 01:00:00 -1,1 -1,1 31 17 52 28 NNW
22.04.2017 00:00:00 -0,4 -0,4 37 20 52 28 NNW
21.04.2017 23:00:00 -0,6 -0,7 41 22 50 27 NNW
21.04.2017 22:00:00 -0,3 -0,3 41 22 48 26 NNW
21.04.2017 21:00:00 0,0 0,0 34 18 - - NNW
21.04.2017 20:00:00 0,3 -0,3 35 19 52 28 NNW
21.04.2017 19:00:00 0,2 0,2 39 21 52 28 NNW
21.04.2017 18:00:00 0,3 0,3 41 22 48 26 NNW
21.04.2017 17:00:00 1,6 -0,5 42 23 54 29 NNW
21.04.2017 16:00:00 1,1 0,0 44 24 65 35 NNW
21.04.2017 15:00:00 2,2 0,8 44 24 63 34 NNW
21.04.2017 14:00:00 1,4 0,9 48 26 61 33 NNW
21.04.2017 13:00:00 2,0 0,2 44 24 67 36 NNW
21.04.2017 12:00:00 1,6 1,6 48 26 61 33 NNW
21.04.2017 11:00:00 1,2 1,2 44 24 57 31 NNW
21.04.2017 10:00:00 0,7 0,7 50 27 59 32 NNW
21.04.2017 09:00:00 2,0 2,0 42 23 61 33 NW
21.04.2017 08:00:00 2,6 2,6 52 28 67 36 NW
21.04.2017 07:00:00 3,3 3,3 44 24 70 38 NW
21.04.2017 06:00:00 5,2 5,2 54 29 68 37 W
21.04.2017 05:00:00 5,1 5,1 44 24 65 35 W
21.04.2017 04:00:00 5,2 5,2 50 27 68 37 W

tt = temperature
td = dewpoint
ff = wind speed
fx = gusts
dd = wind direction

Next stations